Etihad Airways Virtual Airport Information Service

Abu Dhabi International Airport

ICAO: OMAA Country: United Arab Emirates
Latitude: 24.433 Longitude: 54.6511
Latest Arrival : ETD217 (VOBL-OMAA) Latest Departure : ETD925 (OMAA-VHHH)


WX CaptureLIVE
Data provided by noaa.gov | Recorded at 03:11:57

METAR : OMAA 190200Z 10003KT CAVOK 17/11 Q1015 NOSIG

TAF :


Runway Data for OMAA
Data provided by openaviationdata.com

Runway ID Mag Var Hdg Length Elevation Surface ILS Freq ILS Id ILS Slope

Abu Dhabi International Airport, United Arab Emirates
Use only for reference purposes